Huvudsida
METAR-TAF:

METAR-TAF

Flygplatser :

Bisha, Saudiarabien

latitud: 19-59N, longitud: 042-37E, höjd: 1167 m

Aktuellt väderrapport

Denna rapport gjordes för 33 minuter sedan, klockan 08:00 UTC
Vind 6 kt från nord
Temperatur 22°C
Fuktighet 41%
Tryck 1020 hPa
Sikt: 6000 m
Klar himmel

METAR: OEBH 220800Z 36006KT 6000 SKC 22/08 Q1020 NOSIG

Tid: 11:33 (08:33 UTC)

Väderprognos

Denna rapport gjordes för 9 timmar och 33 minuter sedan, klockan 23:00 UTC
Prognos gäller från 22 kl. 00 UTC till 23 kl. 06 UTC
Vind 3 kt varierande vindriktning
Sikt: 7000 m
Få moln på en höjd av 3000 ft
Blir
från 22 kl. 06 UTC till 22 kl. 08 UTC
Vind 14 kt från väst/sydväst
Blir
från 22 kl. 18 UTC till 22 kl. 20 UTC
Vind 3 kt varierande vindriktning

TAF: OEBH 212300Z 2200/2306 VRB03KT 7000 FEW030 BECMG 2206/2208 24014KT BECMG 2218/2220 VRB03KT

Aktuella väderrapporter och prognoser från 4000 flygplatser (METAR- och TAF-rapporter).

De tillgängliga stationerna syns som gula och röda prickar på kartan.

För musen över prickarna för att se namnen på stationerna.

Klicka sedan för att få väderrapporter och prognoser.

För att ändra kartan: Klicka på de gröna knapparna med ett svart kors på för att zooma in; den gröna knappen med ett streck på för att zooma ut; eller på de gröna pilarna för angränsande kartor.


METAR-TAF: